Time;durP1;ratioP1;P1;durP2;ratioP2;P2;SDS_P1;SDS_P2;PMS_P1;PMS_P2;Temp;Humidity;BMP_temperature;BMP_pressure;BME280_temperature;BME280_humidity;BME280_pressure;Samples;Min_cycle;Max_cycle;Signal;HPM_P1;HPM_P2
2023/05/26 00:01:52;;;;;;;20.83;8.10;;;;;;;;;;5011343;28;20371;-58
2023/05/26 00:04:18;;;;;;;13.48;7.25;;;;;;;;;;5011841;28;20040;-57
2023/05/26 00:06:46;;;;;;;16.45;7.68;;;;;;;;;;5012951;28;20387;-58
2023/05/26 00:09:13;;;;;;;13.93;7.45;;;;;;;;;;5015897;28;20034;-59
2023/05/26 00:11:39;;;;;;;16.48;7.35;;;;;;;;;;5016517;28;20407;-59
2023/05/26 00:14:06;;;;;;;14.60;6.78;;;;;;;;;;5019826;28;20421;-58
2023/05/26 00:16:32;;;;;;;13.73;6.75;;;;;;;;;;5017190;28;20045;-58
2023/05/26 00:18:58;;;;;;;15.00;7.15;;;;;;;;;;5016559;28;20030;-58
2023/05/26 00:21:24;;;;;;;16.42;7.45;;;;;;;;;;4995321;28;20037;-58
2023/05/26 00:23:50;;;;;;;14.70;6.97;;;;;;;;;;5020076;28;20410;-58
2023/05/26 00:26:16;;;;;;;14.07;6.93;;;;;;;;;;5017845;28;20513;-58
2023/05/26 00:28:48;;;;;;;16.92;7.15;;;;;;;;;;4998462;28;20057;-59
2023/05/26 00:31:14;;;;;;;13.55;6.53;;;;;;;;;;4996486;28;20042;-58
2023/05/26 00:33:40;;;;;;;14.63;7.68;;;;;;;;;;4999841;28;20411;-58
2023/05/26 00:36:06;;;;;;;13.15;6.60;;;;;;;;;;5024562;28;20048;-58
2023/05/26 00:38:32;;;;;;;12.43;7.00;;;;;;;;;;5021182;28;20057;-59
2023/05/26 00:40:59;;;;;;;13.63;7.10;;;;;;;;;;5014179;28;20471;-58
2023/05/26 00:43:26;;;;;;;15.70;7.07;;;;;;;;;;5009577;28;20052;-58
2023/05/26 00:45:52;;;;;;;11.95;6.47;;;;;;;;;;5017269;28;20036;-59
2023/05/26 00:48:18;;;;;;;12.75;7.35;;;;;;;;;;5001028;28;20053;-58
2023/05/26 00:50:45;;;;;;;11.10;6.25;;;;;;;;;;5026022;28;20057;-58
2023/05/26 00:53:16;;;;;;;12.18;6.78;;;;;;;;;;4998285;28;20074;-58
2023/05/26 00:55:47;;;;;;;10.95;6.53;;;;;;;;;;5017553;28;20034;-58
2023/05/26 00:58:13;;;;;;;10.48;6.03;;;;;;;;;;4996155;28;20033;-58
2023/05/26 01:00:40;;;;;;;12.77;7.43;;;;;;;;;;5003485;28;20386;-58
2023/05/26 01:03:07;;;;;;;14.20;6.70;;;;;;;;;;4993947;28;20045;-58
2023/05/26 01:05:33;;;;;;;10.27;6.65;;;;;;;;;;5016174;28;20045;-58
2023/05/26 01:08:00;;;;;;;11.73;6.50;;;;;;;;;;5017747;28;20053;-58
2023/05/26 01:10:31;;;;;;;12.73;6.75;;;;;;;;;;5016263;28;20518;-59
2023/05/26 01:13:08;;;;;;;11.13;5.85;;;;;;;;;;5015696;28;20037;-58
2023/05/26 01:15:43;;;;;;;9.90;6.55;;;;;;;;;;5012158;28;20041;-59
2023/05/26 01:18:13;;;;;;;9.43;6.57;;;;;;;;;;5003974;28;20342;-58
2023/05/26 01:20:45;;;;;;;11.18;6.30;;;;;;;;;;5024087;28;20049;-59
2023/05/26 01:23:40;;;;;;;9.70;6.30;;;;;;;;;;5001336;28;20033;-58
2023/05/26 01:26:13;;;;;;;15.18;6.55;;;;;;;;;;5020383;28;20486;-59
2023/05/26 01:28:42;;;;;;;10.57;6.97;;;;;;;;;;5019082;28;20048;-58
2023/05/26 01:31:08;;;;;;;10.90;6.30;;;;;;;;;;5016532;28;20724;-58
2023/05/26 01:33:35;;;;;;;10.63;6.25;;;;;;;;;;5004727;28;20387;-58
2023/05/26 01:36:03;;;;;;;12.98;6.55;;;;;;;;;;5021066;28;20034;-58
2023/05/26 01:38:30;;;;;;;12.43;6.35;;;;;;;;;;5022226;28;20406;-57
2023/05/26 01:41:10;;;;;;;12.10;7.18;;;;;;;;;;5020567;28;20089;-58
2023/05/26 01:43:54;;;;;;;10.82;6.32;;;;;;;;;;4994376;28;20479;-59
2023/05/26 01:46:29;;;;;;;13.32;6.78;;;;;;;;;;5001573;28;20046;-58
2023/05/26 01:48:58;;;;;;;12.35;5.75;;;;;;;;;;5013237;28;20045;-59
2023/05/26 01:51:33;;;;;;;11.93;6.70;;;;;;;;;;4993346;28;20486;-58
2023/05/26 01:54:01;;;;;;;10.60;6.53;;;;;;;;;;5012871;28;20040;-58
2023/05/26 01:56:32;;;;;;;13.70;6.40;;;;;;;;;;5018406;28;20029;-58
2023/05/26 01:59:01;;;;;;;12.32;6.43;;;;;;;;;;4992367;28;20105;-58
2023/05/26 02:01:27;;;;;;;10.60;5.97;;;;;;;;;;4995544;28;20052;-58
2023/05/26 02:03:55;;;;;;;11.23;6.65;;;;;;;;;;4996473;28;20040;-58
2023/05/26 02:06:21;;;;;;;9.35;5.80;;;;;;;;;;4992987;28;20041;-58
2023/05/26 02:08:47;;;;;;;11.05;6.72;;;;;;;;;;5007034;28;20030;-58
2023/05/26 02:11:14;;;;;;;10.60;6.63;;;;;;;;;;4996520;28;20042;-58
2023/05/26 02:13:40;;;;;;;10.68;6.40;;;;;;;;;;5003842;28;20053;-59
2023/05/26 02:16:06;;;;;;;9.57;6.40;;;;;;;;;;5012617;28;20064;-59
2023/05/26 02:18:35;;;;;;;13.38;6.97;;;;;;;;;;5017011;28;20113;-59
2023/05/26 02:21:02;;;;;;;11.60;6.57;;;;;;;;;;4997568;28;20052;-59
2023/05/26 02:23:28;;;;;;;12.93;7.03;;;;;;;;;;4999859;28;20037;-59
2023/05/26 02:25:54;;;;;;;9.38;6.38;;;;;;;;;;5014657;28;20422;-59
2023/05/26 02:28:20;;;;;;;12.35;6.90;;;;;;;;;;5023080;28;20041;-59
2023/05/26 02:30:46;;;;;;;9.20;6.40;;;;;;;;;;4994498;28;20032;-59
2023/05/26 02:33:12;;;;;;;15.57;7.40;;;;;;;;;;5009645;28;20041;-58
2023/05/26 02:35:40;;;;;;;13.32;7.20;;;;;;;;;;5013606;28;20050;-59
2023/05/26 02:38:06;;;;;;;14.68;7.18;;;;;;;;;;5014850;28;20400;-59
2023/05/26 02:40:33;;;;;;;11.38;6.80;;;;;;;;;;5014747;28;20403;-58
2023/05/26 02:43:00;;;;;;;11.73;7.32;;;;;;;;;;5003310;28;20476;-59
2023/05/26 02:45:26;;;;;;;12.63;7.57;;;;;;;;;;5017999;28;20403;-58
2023/05/26 02:47:52;;;;;;;15.18;7.70;;;;;;;;;;5014856;28;20048;-58
2023/05/26 02:50:20;;;;;;;13.70;7.63;;;;;;;;;;4999173;28;20037;-58
2023/05/26 02:52:46;;;;;;;12.05;7.30;;;;;;;;;;5010164;28;20057;-57
2023/05/26 02:55:12;;;;;;;15.48;7.30;;;;;;;;;;4999843;28;20041;-58
2023/05/26 02:57:39;;;;;;;14.93;7.35;;;;;;;;;;5015446;28;20029;-59
2023/05/26 03:00:07;;;;;;;12.93;7.57;;;;;;;;;;4994807;28;20053;-59
2023/05/26 03:02:33;;;;;;;11.27;6.80;;;;;;;;;;5015227;28;20045;-57
2023/05/26 03:04:59;;;;;;;12.18;7.07;;;;;;;;;;4998840;28;20045;-59
2023/05/26 03:07:25;;;;;;;11.98;7.05;;;;;;;;;;5010589;28;20034;-58
2023/05/26 03:09:52;;;;;;;12.35;6.70;;;;;;;;;;4997093;28;20407;-58
2023/05/26 03:12:18;;;;;;;13.13;6.88;;;;;;;;;;5012901;28;20491;-58
2023/05/26 03:14:45;;;;;;;14.10;7.18;;;;;;;;;;5008617;28;20044;-58
2023/05/26 03:17:11;;;;;;;11.60;6.78;;;;;;;;;;4993972;28;20030;-59
2023/05/26 03:19:37;;;;;;;13.00;7.40;;;;;;;;;;4998108;28;20061;-58
2023/05/26 03:22:04;;;;;;;14.40;7.97;;;;;;;;;;5013966;28;20049;-57
2023/05/26 03:24:30;;;;;;;15.60;8.40;;;;;;;;;;4997360;28;20046;-58
2023/05/26 03:26:56;;;;;;;14.10;8.13;;;;;;;;;;5007161;28;20038;-58
2023/05/26 03:29:22;;;;;;;13.48;7.38;;;;;;;;;;5016725;28;20034;-56
2023/05/26 03:31:48;;;;;;;13.32;7.65;;;;;;;;;;5013286;28;20045;-57
2023/05/26 03:34:15;;;;;;;14.23;7.97;;;;;;;;;;4979500;28;20061;-57
2023/05/26 03:36:45;;;;;;;10.30;6.80;;;;;;;;;;5001706;28;20042;-57
2023/05/26 03:39:18;;;;;;;13.77;7.38;;;;;;;;;;5000769;28;20311;-57
2023/05/26 03:41:44;;;;;;;13.00;7.57;;;;;;;;;;5017180;28;20046;-58
2023/05/26 03:44:10;;;;;;;13.55;7.68;;;;;;;;;;4999862;28;20137;-57
2023/05/26 03:46:37;;;;;;;15.52;8.27;;;;;;;;;;5001755;28;20486;-57
2023/05/26 03:49:05;;;;;;;14.20;8.43;;;;;;;;;;4995506;28;20042;-57
2023/05/26 03:51:31;;;;;;;14.23;8.48;;;;;;;;;;5011299;28;20409;-57
2023/05/26 03:53:57;;;;;;;15.77;9.50;;;;;;;;;;5003341;28;20037;-57
2023/05/26 03:56:23;;;;;;;16.80;8.60;;;;;;;;;;5016287;28;20514;-59
2023/05/26 03:58:50;;;;;;;12.98;7.38;;;;;;;;;;5012829;28;20040;-58
2023/05/26 04:01:19;;;;;;;14.85;7.30;;;;;;;;;;5007032;28;20048;-58
2023/05/26 04:03:45;;;;;;;15.15;7.30;;;;;;;;;;4991048;28;20033;-58
2023/05/26 04:06:12;;;;;;;14.05;7.70;;;;;;;;;;5025387;28;20033;-58
2023/05/26 04:08:38;;;;;;;12.20;7.07;;;;;;;;;;4987864;28;20050;-58
2023/05/26 04:11:05;;;;;;;13.80;7.70;;;;;;;;;;5004713;28;20053;-58
2023/05/26 04:13:32;;;;;;;14.10;7.65;;;;;;;;;;5005371;28;20026;-59
2023/05/26 04:15:58;;;;;;;18.00;7.95;;;;;;;;;;5001117;28;20040;-58
2023/05/26 04:18:24;;;;;;;12.82;7.85;;;;;;;;;;4994906;28;20050;-58
2023/05/26 04:20:51;;;;;;;17.65;8.50;;;;;;;;;;5002119;28;20044;-58
2023/05/26 04:23:20;;;;;;;17.35;8.50;;;;;;;;;;4996928;28;20060;-57
2023/05/26 04:25:48;;;;;;;13.35;7.80;;;;;;;;;;5001682;28;20029;-58
2023/05/26 04:28:34;;;;;;;14.77;8.23;;;;;;;;;;5002910;28;20064;-57
2023/05/26 04:31:17;;;;;;;15.18;8.32;;;;;;;;;;4998872;28;20033;-58
2023/05/26 04:34:02;;;;;;;14.82;8.50;;;;;;;;;;5021098;28;20045;-57
2023/05/26 04:36:41;;;;;;;13.43;8.40;;;;;;;;;;5018288;28;20045;-56
2023/05/26 04:39:07;;;;;;;15.85;7.85;;;;;;;;;;5014862;28;20054;-56
2023/05/26 04:41:33;;;;;;;16.30;8.55;;;;;;;;;;5020463;28;20033;-56
2023/05/26 04:44:00;;;;;;;16.38;9.13;;;;;;;;;;4987111;28;20037;-57
2023/05/26 04:46:28;;;;;;;18.42;9.27;;;;;;;;;;4995290;28;20045;-57
2023/05/26 04:48:57;;;;;;;16.52;8.98;;;;;;;;;;4994314;28;20049;-57
2023/05/26 04:51:24;;;;;;;15.18;8.30;;;;;;;;;;5020485;28;20037;-57
2023/05/26 04:53:51;;;;;;;15.35;9.02;;;;;;;;;;4998670;28;20065;-58
2023/05/26 04:56:17;;;;;;;16.98;8.82;;;;;;;;;;5006449;28;20403;-57
2023/05/26 04:58:51;;;;;;;16.10;8.48;;;;;;;;;;4995131;28;20068;-58
2023/05/26 05:01:18;;;;;;;15.82;8.23;;;;;;;;;;5002576;28;20511;-58
2023/05/26 05:04:10;;;;;;;15.63;8.68;;;;;;;;;;5006814;28;20037;-57
2023/05/26 05:06:44;;;;;;;13.20;8.10;;;;;;;;;;5006977;28;20521;-58
2023/05/26 05:09:10;;;;;;;17.95;8.15;;;;;;;;;;5007789;28;20514;-57
2023/05/26 05:11:36;;;;;;;15.93;7.28;;;;;;;;;;5005149;28;20030;-57
2023/05/26 05:14:04;;;;;;;18.50;8.82;;;;;;;;;;5000938;28;20411;-57
2023/05/26 05:16:30;;;;;;;15.98;8.55;;;;;;;;;;4997956;28;20450;-58
2023/05/26 05:18:57;;;;;;;15.43;8.27;;;;;;;;;;4999456;28;20037;-58
2023/05/26 05:21:23;;;;;;;12.50;8.32;;;;;;;;;;4989127;28;20045;-58
2023/05/26 05:23:51;;;;;;;18.20;8.98;;;;;;;;;;5006709;28;20040;-58
2023/05/26 05:26:17;;;;;;;15.77;9.55;;;;;;;;;;5004401;28;20430;-57
2023/05/26 05:28:43;;;;;;;17.25;9.35;;;;;;;;;;5003972;28;20522;-58
2023/05/26 05:31:16;;;;;;;17.08;9.68;;;;;;;;;;4999743;28;20037;-58
2023/05/26 05:33:43;;;;;;;14.80;9.07;;;;;;;;;;5018593;28;20486;-57
2023/05/26 05:36:11;;;;;;;18.02;8.77;;;;;;;;;;5007518;28;20037;-58
2023/05/26 05:38:38;;;;;;;20.13;11.05;;;;;;;;;;4993852;28;20037;-58
2023/05/26 05:41:05;;;;;;;17.15;9.40;;;;;;;;;;4993976;28;20029;-56
2023/05/26 05:43:32;;;;;;;15.90;8.75;;;;;;;;;;4996615;28;20406;-58
2023/05/26 05:45:58;;;;;;;18.00;9.27;;;;;;;;;;4997458;28;20042;-56
2023/05/26 05:48:43;;;;;;;17.42;10.15;;;;;;;;;;5021959;28;20508;-57
2023/05/26 05:51:15;;;;;;;21.45;10.73;;;;;;;;;;4996480;28;20504;-58
2023/05/26 05:53:43;;;;;;;17.38;9.45;;;;;;;;;;5006114;28;20522;-57
2023/05/26 05:56:09;;;;;;;22.00;10.05;;;;;;;;;;4993968;28;20057;-57
2023/05/26 05:58:35;;;;;;;19.42;10.63;;;;;;;;;;5012555;28;20029;-57
2023/05/26 06:01:02;;;;;;;17.95;10.50;;;;;;;;;;5003235;28;20036;-58
2023/05/26 06:03:28;;;;;;;19.83;11.10;;;;;;;;;;4997651;28;20522;-58
2023/05/26 06:05:54;;;;;;;22.52;11.00;;;;;;;;;;5013477;28;20411;-57
2023/05/26 06:08:20;;;;;;;21.08;10.90;;;;;;;;;;4997311;28;20044;-57
2023/05/26 06:10:46;;;;;;;21.33;11.07;;;;;;;;;;5024655;28;20049;-58
2023/05/26 06:13:12;;;;;;;20.27;10.48;;;;;;;;;;5004230;28;20064;-58
2023/05/26 06:15:39;;;;;;;21.50;11.05;;;;;;;;;;4999569;28;20060;-57
2023/05/26 06:18:05;;;;;;;23.33;11.20;;;;;;;;;;4994947;28;20053;-57
2023/05/26 06:20:32;;;;;;;20.63;10.73;;;;;;;;;;4985553;28;20030;-57
2023/05/26 06:22:58;;;;;;;24.17;10.88;;;;;;;;;;4995837;28;20041;-57
2023/05/26 06:25:24;;;;;;;23.98;11.88;;;;;;;;;;5008531;28;20052;-57
2023/05/26 06:27:50;;;;;;;24.55;12.77;;;;;;;;;;5000924;28;23063;-58
2023/05/26 06:30:16;;;;;;;22.52;11.52;;;;;;;;;;4992345;28;20034;-57
2023/05/26 06:32:46;;;;;;;19.85;11.23;;;;;;;;;;5007438;28;20037;-58
2023/05/26 06:35:12;;;;;;;20.02;10.73;;;;;;;;;;4997053;28;20038;-57
2023/05/26 06:37:40;;;;;;;20.55;10.88;;;;;;;;;;5006370;28;20038;-57
2023/05/26 06:40:07;;;;;;;23.33;13.25;;;;;;;;;;5010062;28;20041;-56
2023/05/26 06:42:36;;;;;;;18.00;11.63;;;;;;;;;;5003838;28;20030;-57
2023/05/26 06:45:03;;;;;;;22.30;11.88;;;;;;;;;;4997123;28;20045;-57
2023/05/26 06:47:30;;;;;;;18.92;10.63;;;;;;;;;;4999959;28;20064;-56
2023/05/26 06:50:09;;;;;;;20.75;11.02;;;;;;;;;;4998316;28;20045;-56
2023/05/26 06:52:37;;;;;;;18.58;11.35;;;;;;;;;;5001933;28;20060;-57
2023/05/26 06:55:03;;;;;;;22.45;11.52;;;;;;;;;;5001213;28;20045;-56
2023/05/26 06:57:30;;;;;;;19.70;11.15;;;;;;;;;;4993876;28;20049;-57
2023/05/26 06:59:56;;;;;;;19.40;11.20;;;;;;;;;;5009440;28;20029;-56
2023/05/26 07:02:22;;;;;;;22.00;11.60;;;;;;;;;;5003795;28;20052;-57
2023/05/26 07:04:52;;;;;;;23.60;11.60;;;;;;;;;;5007182;28;20048;-57
2023/05/26 07:07:19;;;;;;;24.83;11.90;;;;;;;;;;4994016;28;20033;-58
2023/05/26 07:09:45;;;;;;;20.83;11.82;;;;;;;;;;4998345;28;20049;-57
2023/05/26 07:12:13;;;;;;;28.05;13.25;;;;;;;;;;5005394;28;20040;-57
2023/05/26 07:14:48;;;;;;;25.30;13.25;;;;;;;;;;4993327;28;20049;-57
2023/05/26 07:17:15;;;;;;;21.75;11.73;;;;;;;;;;4997153;28;20037;-57
2023/05/26 07:19:43;;;;;;;19.42;12.15;;;;;;;;;;4992969;28;20099;-57
2023/05/26 07:22:09;;;;;;;21.08;11.23;;;;;;;;;;5017603;28;20041;-57
2023/05/26 07:24:47;;;;;;;26.23;13.13;;;;;;;;;;5000172;28;20046;-57
2023/05/26 07:27:20;;;;;;;19.08;11.57;;;;;;;;;;4996686;28;20037;-57
2023/05/26 07:29:47;;;;;;;19.85;11.75;;;;;;;;;;5004598;28;20037;-57
2023/05/26 07:32:13;;;;;;;19.75;11.82;;;;;;;;;;4997676;28;20482;-57
2023/05/26 07:34:40;;;;;;;20.88;12.00;;;;;;;;;;4996097;28;20069;-57
2023/05/26 07:37:06;;;;;;;22.73;10.68;;;;;;;;;;4987888;28;20053;-57
2023/05/26 07:39:32;;;;;;;25.17;12.18;;;;;;;;;;5019576;28;20033;-57
2023/05/26 07:41:58;;;;;;;19.10;11.13;;;;;;;;;;5020640;28;20033;-56
2023/05/26 07:44:24;;;;;;;19.35;11.32;;;;;;;;;;4995854;28;20057;-56
2023/05/26 07:46:51;;;;;;;22.17;11.40;;;;;;;;;;5021372;28;20064;-56
2023/05/26 07:49:17;;;;;;;20.88;11.35;;;;;;;;;;5013612;28;20045;-56
2023/05/26 07:51:43;;;;;;;21.55;11.80;;;;;;;;;;5021774;28;20033;-56
2023/05/26 07:54:09;;;;;;;21.23;12.55;;;;;;;;;;5018459;28;20404;-56
2023/05/26 07:56:35;;;;;;;21.90;11.50;;;;;;;;;;5014224;28;20072;-56
2023/05/26 07:59:01;;;;;;;20.88;11.50;;;;;;;;;;5019278;28;20053;-57
2023/05/26 08:01:27;;;;;;;19.77;11.25;;;;;;;;;;5004629;28;20033;-57
2023/05/26 08:03:53;;;;;;;19.63;10.45;;;;;;;;;;5011171;28;20257;-58
2023/05/26 08:06:19;;;;;;;18.20;10.15;;;;;;;;;;5013600;28;20040;-58
2023/05/26 08:08:46;;;;;;;20.17;10.20;;;;;;;;;;5011572;28;20060;-58
2023/05/26 08:11:12;;;;;;;15.77;10.02;;;;;;;;;;5013337;28;20037;-58
2023/05/26 08:13:38;;;;;;;24.15;11.75;;;;;;;;;;5011345;28;20049;-57
2023/05/26 08:16:04;;;;;;;19.70;10.98;;;;;;;;;;5022250;28;20042;-57
2023/05/26 08:18:30;;;;;;;18.55;10.57;;;;;;;;;;5013268;28;20048;-57
2023/05/26 08:20:57;;;;;;;17.13;10.23;;;;;;;;;;5020778;28;20388;-57
2023/05/26 08:23:23;;;;;;;20.73;10.98;;;;;;;;;;5014508;28;20049;-57
2023/05/26 08:25:49;;;;;;;18.35;11.18;;;;;;;;;;5018872;28;20502;-58
2023/05/26 08:28:15;;;;;;;18.67;11.18;;;;;;;;;;5017320;28;20033;-58
2023/05/26 08:30:41;;;;;;;20.40;10.40;;;;;;;;;;5020295;28;20046;-60
2023/05/26 08:33:07;;;;;;;22.23;10.75;;;;;;;;;;5014533;28;20044;-58
2023/05/26 08:35:34;;;;;;;18.00;10.50;;;;;;;;;;5017738;28;20410;-58
2023/05/26 08:38:00;;;;;;;19.30;10.75;;;;;;;;;;5024613;28;20380;-58
2023/05/26 08:40:26;;;;;;;22.33;11.07;;;;;;;;;;5006083;28;20498;-58
2023/05/26 08:42:56;;;;;;;21.17;10.68;;;;;;;;;;5009701;28;20033;-58
2023/05/26 08:45:24;;;;;;;16.80;10.70;;;;;;;;;;5027290;28;20053;-56
2023/05/26 08:47:51;;;;;;;18.60;11.00;;;;;;;;;;5010892;28;21027;-58
2023/05/26 08:50:18;;;;;;;21.80;11.82;;;;;;;;;;4997745;28;20563;-58
2023/05/26 08:52:46;;;;;;;20.10;11.57;;;;;;;;;;5014681;28;20033;-57
2023/05/26 08:55:13;;;;;;;16.77;10.70;;;;;;;;;;4993953;28;20524;-57
2023/05/26 08:57:41;;;;;;;17.38;8.60;;;;;;;;;;4983002;28;20060;-58
2023/05/26 09:00:08;;;;;;;17.05;9.70;;;;;;;;;;5008906;28;20517;-58
2023/05/26 09:02:34;;;;;;;17.58;10.75;;;;;;;;;;5018278;28;20038;-58
2023/05/26 09:05:01;;;;;;;16.02;9.95;;;;;;;;;;5017877;28;20041;-59
2023/05/26 09:07:27;;;;;;;19.45;10.63;;;;;;;;;;5028112;28;20409;-56
2023/05/26 09:09:53;;;;;;;18.15;10.27;;;;;;;;;;5014188;28;20038;-57
2023/05/26 09:12:19;;;;;;;18.58;10.32;;;;;;;;;;5022770;28;20033;-57
2023/05/26 09:14:46;;;;;;;14.85;9.57;;;;;;;;;;5001848;28;20100;-57
2023/05/26 09:17:13;;;;;;;21.55;10.25;;;;;;;;;;5014290;28;20470;-56
2023/05/26 09:19:39;;;;;;;18.08;10.65;;;;;;;;;;5015407;28;20041;-57
2023/05/26 09:22:36;;;;;;;16.73;10.30;;;;;;;;;;5022048;28;20048;-57
2023/05/26 09:25:28;;;;;;;15.02;9.55;;;;;;;;;;5013697;28;20045;-58
2023/05/26 09:28:05;;;;;;;16.52;9.38;;;;;;;;;;5008740;28;20049;-57
2023/05/26 09:30:40;;;;;;;16.10;10.02;;;;;;;;;;5014106;28;20049;-57
2023/05/26 09:33:08;;;;;;;15.95;9.43;;;;;;;;;;5015945;28;20042;-57
2023/05/26 09:35:47;;;;;;;16.65;9.93;;;;;;;;;;5014067;28;20037;-58
2023/05/26 09:38:17;;;;;;;17.30;9.90;;;;;;;;;;5019270;28;20056;-58
2023/05/26 09:40:46;;;;;;;17.65;9.93;;;;;;;;;;5021274;28;20222;-58
2023/05/26 09:43:13;;;;;;;16.23;8.98;;;;;;;;;;5013726;28;20042;-58
2023/05/26 09:45:40;;;;;;;16.63;9.25;;;;;;;;;;5019618;28;20514;-58
2023/05/26 09:48:07;;;;;;;15.50;9.85;;;;;;;;;;5023910;28;20049;-58
2023/05/26 09:50:36;;;;;;;15.35;9.52;;;;;;;;;;5024653;28;20049;-58
2023/05/26 09:53:08;;;;;;;14.15;8.85;;;;;;;;;;5027407;28;20061;-58
2023/05/26 09:55:36;;;;;;;14.18;8.15;;;;;;;;;;5004965;28;20029;-58
2023/05/26 09:58:07;;;;;;;14.88;9.63;;;;;;;;;;5020753;28;20044;-58
2023/05/26 10:00:34;;;;;;;13.95;8.88;;;;;;;;;;4998486;28;20034;-58
2023/05/26 10:03:04;;;;;;;15.02;9.07;;;;;;;;;;5020730;28;20048;-58
2023/05/26 10:05:45;;;;;;;16.08;8.65;;;;;;;;;;5016078;28;20045;-58
2023/05/26 10:08:17;;;;;;;16.25;9.00;;;;;;;;;;4997487;28;20033;-57
2023/05/26 10:10:44;;;;;;;20.15;11.40;;;;;;;;;;4995312;28;20077;-56
2023/05/26 10:13:11;;;;;;;15.57;9.60;;;;;;;;;;5018604;28;20400;-56
2023/05/26 10:15:37;;;;;;;15.73;9.57;;;;;;;;;;5023732;28;20054;-57
2023/05/26 10:18:03;;;;;;;13.98;9.00;;;;;;;;;;4997453;28;20054;-55
2023/05/26 10:20:30;;;;;;;20.95;9.00;;;;;;;;;;4999070;28;20399;-56
2023/05/26 10:22:59;;;;;;;25.55;13.63;;;;;;;;;;5018792;28;20041;-56
2023/05/26 10:25:41;;;;;;;19.30;10.10;;;;;;;;;;5025313;28;20490;-56
2023/05/26 10:28:25;;;;;;;18.85;11.38;;;;;;;;;;5012487;28;20069;-57
2023/05/26 10:30:59;;;;;;;14.30;9.32;;;;;;;;;;5017851;28;20037;-56
2023/05/26 10:33:38;;;;;;;23.30;10.50;;;;;;;;;;5003614;28;20045;-58
2023/05/26 10:36:13;;;;;;;20.75;10.93;;;;;;;;;;5011795;28;20431;-56
2023/05/26 10:38:47;;;;;;;18.25;9.55;;;;;;;;;;5023027;28;20391;-56
2023/05/26 10:41:28;;;;;;;17.52;9.13;;;;;;;;;;5027040;28;20064;-57
2023/05/26 10:43:55;;;;;;;15.18;9.60;;;;;;;;;;5027419;28;20498;-57
2023/05/26 10:46:21;;;;;;;15.63;9.00;;;;;;;;;;5027393;28;20041;-58
2023/05/26 10:48:58;;;;;;;13.80;8.63;;;;;;;;;;5016598;28;20420;-58
2023/05/26 10:51:27;;;;;;;14.55;9.27;;;;;;;;;;5017972;28;20395;-58
2023/05/26 10:53:56;;;;;;;14.82;8.63;;;;;;;;;;5015760;28;20050;-58
2023/05/26 10:56:42;;;;;;;18.25;9.52;;;;;;;;;;5025780;28;20029;-58
2023/05/26 10:59:19;;;;;;;15.05;10.15;;;;;;;;;;5013541;28;20044;-58
2023/05/26 11:01:51;;;;;;;13.27;8.35;;;;;;;;;;4996758;28;20049;-58
2023/05/26 11:04:17;;;;;;;18.10;8.85;;;;;;;;;;5022946;28;20513;-57
2023/05/26 11:06:51;;;;;;;14.40;8.65;;;;;;;;;;5017172;28;20495;-55
2023/05/26 11:09:22;;;;;;;16.85;9.05;;;;;;;;;;4996488;28;20052;-55
2023/05/26 11:11:59;;;;;;;14.60;8.77;;;;;;;;;;5016815;28;20041;-61
2023/05/26 11:14:27;;;;;;;11.32;8.32;;;;;;;;;;5018745;28;20045;-62
2023/05/26 11:17:01;;;;;;;14.60;8.60;;;;;;;;;;5014970;28;20442;-61
2023/05/26 11:19:34;;;;;;;17.35;8.93;;;;;;;;;;5001325;28;20574;-61
2023/05/26 11:22:05;;;;;;;17.73;8.93;;;;;;;;;;5014127;28;20049;-62
2023/05/26 11:24:34;;;;;;;15.40;8.93;;;;;;;;;;4997666;28;20034;-61
2023/05/26 11:27:05;;;;;;;12.88;7.53;;;;;;;;;;5013180;28;20041;-61
2023/05/26 11:29:31;;;;;;;14.55;8.25;;;;;;;;;;5014333;28;20391;-61
2023/05/26 11:31:58;;;;;;;11.80;8.15;;;;;;;;;;5017280;28;20064;-61
2023/05/26 11:34:24;;;;;;;10.80;7.10;;;;;;;;;;5025790;28;20049;-60
2023/05/26 11:36:53;;;;;;;13.95;8.05;;;;;;;;;;5012836;28;20034;-60
2023/05/26 11:39:21;;;;;;;17.67;8.70;;;;;;;;;;5024867;28;20030;-60
2023/05/26 11:41:48;;;;;;;16.33;8.40;;;;;;;;;;5014643;28;20052;-60
2023/05/26 11:44:15;;;;;;;14.63;8.05;;;;;;;;;;5010684;28;20041;-60
2023/05/26 11:46:43;;;;;;;15.27;8.35;;;;;;;;;;5011713;28;20539;-61
2023/05/26 11:49:18;;;;;;;14.00;8.55;;;;;;;;;;5021610;28;20630;-60
2023/05/26 11:51:51;;;;;;;13.52;8.07;;;;;;;;;;5004294;28;20037;-60
2023/05/26 11:54:19;;;;;;;13.77;8.23;;;;;;;;;;5018183;28;20046;-60
2023/05/26 11:56:46;;;;;;;12.40;7.93;;;;;;;;;;5018227;28;20034;-61
2023/05/26 11:59:20;;;;;;;11.90;8.45;;;;;;;;;;5021857;28;20033;-64
2023/05/26 12:01:47;;;;;;;12.23;8.35;;;;;;;;;;5007979;28;20074;-64
2023/05/26 12:04:14;;;;;;;15.88;8.60;;;;;;;;;;5019058;28;20045;-64
2023/05/26 12:06:42;;;;;;;15.32;7.93;;;;;;;;;;5032433;28;20033;-65
2023/05/26 12:09:22;;;;;;;14.48;8.07;;;;;;;;;;5024842;28;20045;-63
2023/05/26 12:11:57;;;;;;;15.10;7.63;;;;;;;;;;5031028;28;20391;-65
2023/05/26 12:14:23;;;;;;;11.90;7.47;;;;;;;;;;5028104;28;20037;-65
2023/05/26 12:16:51;;;;;;;14.30;8.30;;;;;;;;;;5019367;28;20041;-63
2023/05/26 12:19:19;;;;;;;11.68;7.45;;;;;;;;;;5004352;28;20475;-64
2023/05/26 12:21:56;;;;;;;18.55;7.80;;;;;;;;;;5022350;28;20030;-60
2023/05/26 12:24:36;;;;;;;14.30;8.23;;;;;;;;;;5022273;28;20049;-62
2023/05/26 12:27:11;;;;;;;14.55;8.57;;;;;;;;;;5015647;28;20044;-61
2023/05/26 12:29:40;;;;;;;15.13;8.77;;;;;;;;;;5021341;28;20387;-60
2023/05/26 12:32:07;;;;;;;;;;;;;;;;;;5020918;28;20041;-60
2023/05/26 12:34:38;;;;;;;13.77;9.00;;;;;;;;;;5018183;28;19925;-60
2023/05/26 12:37:05;;;;;;;14.10;8.32;;;;;;;;;;5002312;28;20044;-61
2023/05/26 12:39:32;;;;;;;15.65;8.27;;;;;;;;;;5020228;28;20406;-60
2023/05/26 12:41:58;;;;;;;15.60;8.50;;;;;;;;;;5020718;28;20072;-60
2023/05/26 12:44:24;;;;;;;13.70;8.88;;;;;;;;;;4997192;28;20037;-60
2023/05/26 12:46:50;;;;;;;17.92;8.48;;;;;;;;;;5017205;28;20472;-60
2023/05/26 12:49:16;;;;;;;19.58;9.40;;;;;;;;;;5013316;28;20430;-60
2023/05/26 12:51:43;;;;;;;19.50;8.65;;;;;;;;;;5023388;28;20621;-60
2023/05/26 12:54:10;;;;;;;19.92;9.15;;;;;;;;;;5019525;28;20512;-59
2023/05/26 12:56:37;;;;;;;14.05;8.70;;;;;;;;;;5027297;28;20053;-60
2023/05/26 12:59:04;;;;;;;17.73;8.45;;;;;;;;;;5015235;28;20041;-61
2023/05/26 13:01:30;;;;;;;15.82;7.82;;;;;;;;;;5029540;28;20040;-63
2023/05/26 13:03:56;;;;;;;13.98;8.18;;;;;;;;;;5022019;28;20426;-63
2023/05/26 13:06:23;;;;;;;11.65;7.93;;;;;;;;;;5013073;28;20406;-63
2023/05/26 13:08:49;;;;;;;11.35;7.85;;;;;;;;;;4998262;28;20045;-63
2023/05/26 13:11:15;;;;;;;13.50;8.52;;;;;;;;;;5021290;28;20156;-63
2023/05/26 13:13:43;;;;;;;12.80;8.23;;;;;;;;;;5022891;28;20398;-64
2023/05/26 13:16:11;;;;;;;14.27;8.48;;;;;;;;;;5018457;28;20037;-63
2023/05/26 13:18:39;;;;;;;12.20;8.48;;;;;;;;;;5018094;28;20049;-63
2023/05/26 13:21:06;;;;;;;15.05;8.15;;;;;;;;;;5019736;28;20041;-64
2023/05/26 13:23:36;;;;;;;21.10;9.45;;;;;;;;;;5007160;28;20034;-63
2023/05/26 13:26:03;;;;;;;16.63;8.05;;;;;;;;;;5019478;28;20045;-64
2023/05/26 13:28:29;;;;;;;15.95;8.43;;;;;;;;;;5001647;28;20037;-62
2023/05/26 13:30:55;;;;;;;16.45;8.30;;;;;;;;;;5020291;28;20033;-63
2023/05/26 13:33:21;;;;;;;17.85;8.63;;;;;;;;;;4987833;28;20478;-62
2023/05/26 13:35:47;;;;;;;18.40;8.65;;;;;;;;;;5021492;28;20041;-62
2023/05/26 13:38:14;;;;;;;12.93;8.60;;;;;;;;;;5015760;28;20045;-63
2023/05/26 13:40:40;;;;;;;17.25;8.30;;;;;;;;;;5014471;28;20061;-62
2023/05/26 13:43:06;;;;;;;14.63;8.10;;;;;;;;;;4992636;28;20033;-63
2023/05/26 13:45:33;;;;;;;19.45;8.82;;;;;;;;;;5019592;28;20034;-62
2023/05/26 13:47:59;;;;;;;12.52;8.18;;;;;;;;;;5022632;28;20040;-62
2023/05/26 13:50:26;;;;;;;11.35;7.97;;;;;;;;;;4997495;28;20049;-62
2023/05/26 13:52:52;;;;;;;16.40;8.48;;;;;;;;;;5004265;28;20045;-62
2023/05/26 13:55:18;;;;;;;13.02;8.65;;;;;;;;;;5008924;28;20034;-62
2023/05/26 13:57:45;;;;;;;15.18;8.77;;;;;;;;;;4997864;28;20042;-63
2023/05/26 14:00:11;;;;;;;17.50;8.60;;;;;;;;;;5020002;28;20045;-62
2023/05/26 14:02:40;;;;;;;16.30;7.95;;;;;;;;;;5024231;28;20045;-62
2023/05/26 14:05:07;;;;;;;15.55;8.20;;;;;;;;;;5025902;28;20038;-62
2023/05/26 14:07:33;;;;;;;11.95;8.10;;;;;;;;;;5014148;28;20414;-62
2023/05/26 14:09:59;;;;;;;14.70;8.07;;;;;;;;;;5020043;28;20033;-63
2023/05/26 14:12:25;;;;;;;14.65;8.90;;;;;;;;;;5023000;28;20050;-62
2023/05/26 14:14:52;;;;;;;38.60;10.88;;;;;;;;;;4998388;28;20037;-62
2023/05/26 14:17:18;;;;;;;18.58;9.80;;;;;;;;;;5007528;28;20041;-63
2023/05/26 14:19:45;;;;;;;15.73;8.60;;;;;;;;;;4996261;28;20052;-62
2023/05/26 14:22:11;;;;;;;18.95;8.43;;;;;;;;;;5016469;28;20110;-63
2023/05/26 14:24:37;;;;;;;13.32;8.48;;;;;;;;;;5019404;28;20044;-62
2023/05/26 14:27:05;;;;;;;17.23;9.02;;;;;;;;;;5020082;28;20380;-62
2023/05/26 14:29:31;;;;;;;17.77;9.40;;;;;;;;;;5022441;28;20052;-62
2023/05/26 14:31:58;;;;;;;19.08;8.90;;;;;;;;;;5026423;28;20033;-62
2023/05/26 14:34:25;;;;;;;17.15;8.90;;;;;;;;;;5019653;28;20042;-62